Highlands Peak, California Weather observations

Data are for observation ending at time listed.
 Day   Time    Ave.   Ave.  Ave.  Vector   Max.   Stn.    Total    Solar   Ave.  
  of    of     Air    Rel.  Wind   Wind    Wind   Baro.  Precip.   Rad.    Soil  
Year   Day     Temp.  Hum.  Speed  Dir.    Gust   Pres.                    Temp. 
2014   (PST)    F      %     mph   deg.    mph     mb.     in.     W/m2     F   
------------------------------------------------------------------------------
 292    4:50   61.6    52    3.1   111      4.8   926.6    0.00       0    65.7
 292    5:00   60.7    52    3.7    82      4.6   926.7    0.00       0    65.8
 292    5:10   61.0    52    3.6    76      4.5   926.7    0.00       0    65.8
 292    5:20   61.1    52    3.4    92      4.5   926.8    0.00       0    65.8
 292    5:30   60.8    52    3.6    96      4.6   926.8    0.00       0    65.6
 292    5:40   61.1    52    3.5    97      4.5   926.8    0.00       0    65.4
 292    5:50   61.3    52    3.4    99      5.0   926.9    0.00       0    65.3
 292    6:00   61.2    52    4.3   104      5.6   926.9    0.00       0    65.1
 292    6:10   61.5    52    5.2    94      6.6   926.9    0.00       1    64.9
 292    6:20   61.9    51    3.5    76      4.9   927.0    0.00       4    65.1
 292    6:30   61.9    51    3.0    62      5.1   927.1    0.00       7    65.1
 292    6:40   62.3    51    0.9   278      2.6   927.2    0.00      11    65.1
 292    6:50   62.5    50    1.1   201      2.9   927.3    0.00      15    65.0
 292    7:00   62.2    51    1.5   165      2.4   927.4    0.00      18    64.9
 292    7:10   62.9    49    1.3   122      2.3   927.5    0.00     129    64.9
 292    7:20   64.9    46    0.8    89      2.3   927.6    0.00     193    64.8
 292    7:30   65.3    45    0.0   354      0.8   927.7    0.00     229    64.7
 292    7:40   66.0    44    0.8   104      2.1   927.9    0.00     267    64.7
 292    7:50   65.8    45    0.8   145      2.3   927.9    0.00     303    64.6
 292    8:00   66.2    44    0.9   295      1.9   928.0    0.00     339    64.5
 292    8:10   65.2    46    1.1   264      1.9   928.0    0.00     374    64.5
 292    8:20   65.9    45    0.8   258      1.7   928.1    0.00     408    64.4
 292    8:30   65.5    45    2.5   266      3.9   928.1    0.00     442    64.4
 292    8:40   64.8    47    1.6   276      2.0   928.0    0.00     472    64.5
 292    8:50   65.0    47    2.2   273      3.4   928.0    0.00     503    64.5
 292    9:00   64.8    49    3.0   267      3.9   928.1    0.00     532    64.5
 292    9:10   65.0    50    2.7   268      4.0   928.2    0.00     559    64.6
 292    9:20   65.4    50    3.6   269      6.1   928.2    0.00     585    64.7
 292    9:30   65.6    49    2.5   243      5.8   928.3    0.00     610    64.8
 292    9:40   66.7    47    2.2   259      4.2   928.3    0.00     634    65.0
 292    9:50   66.0    49    3.7   274      5.0   928.3    0.00     656    65.2
 292   10:00   65.7    51    3.3   255      5.1   928.2    0.00     676    65.3
 292   10:10   66.6    48    3.2   272      5.8   928.2    0.00     695    65.6
 292   10:20   67.2    47    4.2   278      6.5   928.1    0.00     714    65.8
 292   10:30   67.7    48    4.9   268      7.2   928.1    0.00     727    66.1
 292   10:40   67.2    51    4.4   259      6.7   928.1    0.00     740    66.4
 292   10:50   67.6    51    5.0   264      8.1   928.1    0.00     750    66.7
 292   11:00   67.4    50    4.0   271      6.9   928.2    0.00     759    67.0
 292   11:10   68.0    51    4.6   271      7.4   928.2    0.00     764    67.2
 292   11:20   67.1    56    6.2   263      9.2   928.1    0.00     771    67.6
 292   11:30   66.6    57    5.9   260      9.4   928.1    0.00     774    68.0
 292   11:40   67.3    52    4.4   268      6.8   928.1    0.00     778    68.3
 292   11:50   68.0    49    5.2   257      8.0   928.1    0.00     777    68.6
 292   12:00   68.4    47    4.2   255      9.9   928.0    0.00     777    68.9
 292   12:10   68.4    48    6.2   260      9.4   927.9    0.00     773    69.2
 292   12:20   68.3    47    5.7   269      9.6   927.8    0.00     772    69.5
 292   12:30   69.2    48    5.8   255      8.4   927.7    0.00     769    69.8
 292   12:40   68.0    51    6.8   262     10.2   927.7    0.00     762    70.2
 292   12:50   67.4    54    7.1   271     10.7   927.6    0.00     754    70.5
 292   13:00   66.4    55    6.0   270      9.7   927.5    0.00     737    70.8
 292   13:10   66.2    55    4.6   248      9.3   927.5    0.00     722    71.2
 292   13:20   67.4    53    5.4   261      9.5   927.4    0.00     706    71.5
 292   13:30   66.6    54    5.5   255      8.6   927.3    0.00     688    71.9
 292   13:40   67.2    52    5.0   262      8.5   927.3    0.00     668    72.2
 292   13:50   67.7    52    6.0   249      9.8   927.3    0.00     646    72.6
 292   14:00   67.0    54    6.4   269      9.6   927.2    0.00     623    72.9
 292   14:10   66.8    51    5.8   270      8.3   927.2    0.00     600    73.2
 292   14:20   66.9    51    5.1   266      7.9   927.1    0.00     577    73.5
 292   14:30   67.1    52    5.6   260      8.8   927.0    0.00     551    73.8
 292   14:40   66.6    52    3.9   271      6.4   927.0    0.00     523    74.1
 292   14:50   66.7    51    4.7   270      6.6   926.9    0.00     479    74.4
 292   15:00   66.4    53    5.0   275      7.3   926.8    0.00     462    74.6
 292   15:10   66.2    53    4.5   278      7.1   926.8    0.00     431    74.9
 292   15:20   66.5    51    4.1   271      6.4   926.8    0.00     396    75.1
 292   15:30   66.9    50    4.3   274      6.9   926.7    0.00     363    75.2
 292   15:40   66.5    51    4.8   262      7.8   926.6    0.00     329    75.4
 292   15:50   65.7    53    7.0   277     10.0   926.6    0.00     294    75.6
 292   16:00   63.3    57    6.7   284      9.4   926.6    0.00     259    75.7
 292   16:10   62.0    60    3.1   298      5.4   926.6    0.00     224    75.8
 292   16:20   62.7    60    3.1   288      5.2   926.6    0.00     192    75.9
 292   16:30   63.6    58    1.4   288      3.9   926.6    0.00     161    76.0
 292   16:40   64.2    56    1.2    88      2.5   926.6    0.00     131    76.0
 292   16:50   64.7    56    1.7   282      3.8   926.6    0.00     103    76.1
 292   17:00   64.3    57    2.8   278      4.2   926.7    0.00      77    76.1
 292   17:10   63.4    62    2.2   306      3.8   926.7    0.00      52    76.1
 292   17:20   62.6    63    2.9   303      4.7   926.7    0.00      29    76.0
 292   17:30   61.3    62    4.9   312      6.4   926.7    0.00      12    75.9
 292   17:40   60.4    62    5.4   325      6.6   926.8    0.00       2    75.9
 292   17:50   60.2    62    5.2   331      6.1   926.8    0.00       0    75.8
 292   18:00   60.3    63    4.3   345      5.8   926.7    0.00       0    75.8
 292   18:10   59.1    70    2.3   316      3.6   926.8    0.00       0    75.6
 292   18:20   57.6    78    3.4   294      5.6   926.9    0.00       0    75.5
 292   18:30   57.5    75    5.2   300      8.6   927.0    0.00       0    75.4
 292   18:40   57.9    72    7.1   315      8.3   927.0    0.00       0    75.3
 292   18:50   58.6    70    6.6   320      9.1   927.0    0.00       0    75.1
 292   19:00   58.5    70    4.7   319      7.5   927.0    0.00       0    75.0
 292   19:10   58.4    70    3.1   305      5.3   927.0    0.00       0    74.9
 292   19:20   58.3    70    5.8   305      8.7   927.1    0.00       0    74.7
 292   19:30   58.2    70    6.7   312      9.4   927.1    0.00       0    74.4
 292   19:40   58.4    70    6.0   316      8.4   927.1    0.00       0    74.2
 292   19:50   58.2    70    6.4   321      7.8   927.2    0.00       0    74.1
 292   20:00   58.5    68    5.5   339      8.8   927.2    0.00       0    73.9
 292   20:10   59.0    66    4.7   342      7.5   927.3    0.00       0    73.7
 292   20:20   59.4    66    5.6   316      7.3   927.3    0.00       0    73.4
 292   20:30   59.2    66    6.5   307      8.8   927.3    0.00       0    73.3
 292   20:40   58.6    67    6.9   315      8.3   927.4    0.00       0    73.1
 292   20:50   59.3    65    6.2   330      7.7   927.3    0.00       0    72.9
 292   21:00   59.2    64    5.4   333      7.9   927.4    0.00       0    72.8
 292   21:10   59.5    62    5.2   344      6.9   927.4    0.00       0    72.6
 292   21:20   59.9    60    5.0   358      6.5   927.4    0.00       0    72.4
 292   21:30   60.3    58    4.8    12      6.1   927.5    0.00       0    72.2
 292   21:40   59.5    51    5.8    69      7.8   927.5    0.00       0    71.9
 292   21:50   59.4    47    5.3    73      6.1   927.6    0.00       0    71.7
 292   22:00   59.8    43    6.2    75      7.7   927.6    0.00       0    71.5
 292   22:10   59.2    43    6.8    79      8.7   927.5    0.00       0    71.3
 292   22:20   58.3    44    6.4    83      8.7   927.5    0.00       0    71.0
 292   22:30   60.0    42    6.3    76      8.4   927.4    0.00       0    70.8
 292   22:40   60.5    42    4.8    76      6.7   927.4    0.00       0    70.6
 292   22:50   59.5    43    5.3    66      7.0   927.4    0.00       0    70.5
 292   23:00   59.5    42    5.7    70      9.9   927.3    0.00       0    70.2
 292   23:10   57.2    47    5.6    79      8.2   927.3    0.00       0    69.9
 292   23:20   57.7    45    5.0    85      6.6   927.3    0.00       0    69.7
 292   23:30   58.8    44    4.6    99      5.8   927.3    0.00       0    69.7
 292   23:40   58.7    48    1.9   218      3.5   927.3    0.00       0    69.5
 292   23:50   57.8    47    3.0   353      6.1   927.4    0.00       0    69.3
 293    0:00   56.9    48    4.2    59      6.4   927.3    0.00       0    69.1
 293    0:10   56.4    58    5.1    37      6.3   927.3    0.00       0    69.1
 293    0:20   56.2    65    4.9     1      6.1   927.4    0.00       0    69.0
 293    0:30   55.9    70    4.3   328      5.5   927.4    0.00       0    68.9
 293    0:40   56.0    73    4.1   295      5.8   927.4    0.00       0    68.7
 293    0:50   55.4    79    4.1   288      5.7   927.5    0.00       0    68.5
 293    1:00   55.1    83    2.8   313      4.8   927.6    0.00       0    68.4
 293    1:10   55.7    69    1.9    77      3.2   927.6    0.00       0    68.3
 293    1:20   56.8    63    2.3    21      3.9   927.6    0.00       0    68.1
 293    1:30   56.3    75    4.1   299      5.5   927.7    0.00       0    68.0
 293    1:40   54.9    81    3.3   314      4.7   927.6    0.00       0    68.0
 293    1:50   53.4    81    4.1   315      5.9   927.6    0.00       0    67.8
 293    2:00   52.7    80    6.5    63      9.3   927.4    0.00       0    67.7
 293    2:10   55.4    66    8.0    84     10.1   927.3    0.00       0    67.4
 293    2:20   58.3    63    4.7    69      8.0   927.3    0.00       0    67.2
 293    2:30   54.2    82    5.3   281      7.0   927.4    0.00       0    67.0
 293    2:40   52.4    92    4.1   285      7.6   927.4    0.00       0    66.9
 293    2:50   51.8    93    7.0    89     11.5   927.1    0.00       0    66.9
 293    3:00   53.9    78    9.2    82     11.8   927.0    0.00       0    66.5
 293    3:10   58.3    66    7.0    79      9.8   927.0    0.00       0    66.6
 293    3:20   59.8    60    5.5    62      8.3   927.0    0.00       0    66.5
 293    3:30   59.4    60    6.1    60      7.7   927.1    0.00       0    66.4
 293    3:40   58.5    61    6.1    71      7.9   927.1    0.00       0    66.3
 293    3:50   57.1    65    7.0    87      9.3   927.0    0.00       0    66.3
 293    4:00   58.6    59    5.8    75      9.5   927.0    0.00       0    66.0
 293    4:10   53.8    82    4.1   287      6.2   927.2    0.00       0    65.9
 293    4:20   52.0    91    2.4   297      6.2   927.3    0.00       0    65.9
 293    4:30   51.4    93    4.9    67      7.5   927.4    0.00       0    65.9
 293    4:40   51.1    94    4.4   353      7.4   927.4    0.00       0    65.9

Return to Highlands Peak graphs page.


Western Regional Climate Center,wrcc@dri.edu